createdAt,value
2022-09-14T00:00:11.209Z,18.27
2022-09-14T00:02:37.783Z,18.19
2022-09-14T00:05:04.495Z,18.12
2022-09-14T00:07:30.893Z,18.08
2022-09-14T00:09:57.319Z,17.96
2022-09-14T00:12:24.874Z,17.82
2022-09-14T00:14:51.345Z,17.75
2022-09-14T00:17:17.932Z,17.79
2022-09-14T00:19:44.459Z,17.83
2022-09-14T00:22:10.891Z,17.76
2022-09-14T00:24:37.388Z,17.69
2022-09-14T00:27:04.017Z,17.73
2022-09-14T00:29:30.837Z,17.74
2022-09-14T00:31:57.406Z,17.71
2022-09-14T00:34:23.932Z,17.73
2022-09-14T00:36:51.731Z,17.80
2022-09-14T00:39:20.973Z,17.73
2022-09-14T00:41:48.683Z,17.70
2022-09-14T00:44:15.018Z,17.71
2022-09-14T00:46:44.628Z,17.70
2022-09-14T00:49:23.972Z,17.66
2022-09-14T00:52:09.922Z,17.71
2022-09-14T00:54:43.720Z,17.74
2022-09-14T00:57:10.424Z,17.74
2022-09-14T00:59:39.304Z,17.71
2022-09-14T01:02:09.040Z,17.69
2022-09-14T01:04:36.679Z,17.66
2022-09-14T01:07:26.939Z,17.55
2022-09-14T01:09:59.625Z,17.54
2022-09-14T01:12:39.285Z,17.55
2022-09-14T01:15:44.207Z,17.48
2022-09-14T01:18:21.139Z,17.49
2022-09-14T01:20:54.439Z,17.51
2022-09-14T01:23:49.092Z,17.43
2022-09-14T01:26:36.802Z,17.48
2022-09-14T01:29:06.125Z,17.55
2022-09-14T01:31:40.480Z,17.57
2022-09-14T01:34:36.615Z,17.54
2022-09-14T01:37:30.964Z,17.47
2022-09-14T01:40:10.151Z,17.49
2022-09-14T01:42:39.511Z,17.48
2022-09-14T01:45:10.012Z,17.50
2022-09-14T01:47:54.237Z,17.52
2022-09-14T01:50:27.174Z,17.52
2022-09-14T01:53:05.128Z,17.48
2022-09-14T01:56:09.178Z,17.50
2022-09-14T01:58:35.650Z,17.50
2022-09-14T02:01:05.464Z,17.39
2022-09-14T02:03:40.838Z,17.45
2022-09-14T02:06:19.174Z,17.42
2022-09-14T02:08:45.641Z,17.38
2022-09-14T02:11:12.131Z,17.41
2022-09-14T02:13:38.643Z,17.41
2022-09-14T02:16:05.426Z,17.30
2022-09-14T02:18:31.946Z,17.31
2022-09-14T02:21:03.545Z,17.27
2022-09-14T02:23:30.596Z,17.32
2022-09-14T02:25:58.314Z,17.29
2022-09-14T02:28:24.744Z,17.32
2022-09-14T02:30:59.052Z,17.22
2022-09-14T02:33:46.791Z,17.28
2022-09-14T02:36:42.392Z,17.18
2022-09-14T02:39:27.076Z,17.26
2022-09-14T02:42:14.708Z,17.22
2022-09-14T02:44:51.513Z,17.02
2022-09-14T02:47:47.216Z,17.08
2022-09-14T02:50:34.982Z,17.16
2022-09-14T02:53:01.347Z,17.14
2022-09-14T02:55:34.128Z,17.16
2022-09-14T02:58:07.486Z,17.17
2022-09-14T03:00:38.995Z,17.13
2022-09-14T03:03:07.493Z,17.08
2022-09-14T03:05:35.013Z,17.08
2022-09-14T03:08:02.034Z,17.00
2022-09-14T03:10:28.847Z,17.01
2022-09-14T03:12:55.250Z,17.01
2022-09-14T03:15:21.667Z,16.96
2022-09-14T03:17:49.180Z,16.89
2022-09-14T03:20:17.667Z,16.91
2022-09-14T03:22:44.144Z,16.94
2022-09-14T03:25:10.669Z,16.90
2022-09-14T03:27:37.319Z,16.86
2022-09-14T03:30:07.528Z,16.87
2022-09-14T03:32:34.453Z,16.81
2022-09-14T03:35:01.102Z,16.83
2022-09-14T03:37:27.723Z,16.78
2022-09-14T03:39:54.225Z,16.80
2022-09-14T03:42:20.695Z,16.77
2022-09-14T03:44:47.196Z,16.74
2022-09-14T03:47:13.615Z,16.64
2022-09-14T03:49:40.754Z,16.58
2022-09-14T03:52:07.916Z,16.61
2022-09-14T03:54:34.706Z,16.59
2022-09-14T03:57:01.144Z,16.51
2022-09-14T03:59:27.668Z,16.57
2022-09-14T04:01:54.175Z,16.66
2022-09-14T04:04:20.712Z,16.62
2022-09-14T04:06:48.175Z,16.61
2022-09-14T04:09:14.876Z,16.54
2022-09-14T04:11:41.351Z,16.61
2022-09-14T04:14:08.405Z,16.61
2022-09-14T04:16:35.025Z,16.62
2022-09-14T04:19:01.633Z,16.59
2022-09-14T04:21:28.129Z,16.58
2022-09-14T04:24:14.008Z,16.57
2022-09-14T04:26:42.143Z,16.50
2022-09-14T04:29:10.503Z,16.51
2022-09-14T04:31:37.011Z,16.52
2022-09-14T04:34:03.511Z,16.43
2022-09-14T04:36:30.843Z,16.44
2022-09-14T04:39:02.910Z,16.42
2022-09-14T04:41:30.897Z,16.46
2022-09-14T04:43:58.486Z,16.47
2022-09-14T04:46:30.214Z,16.46
2022-09-14T04:48:56.828Z,16.40
2022-09-14T04:51:25.775Z,16.42
2022-09-14T04:53:55.074Z,16.36
2022-09-14T04:56:22.914Z,16.40
2022-09-14T04:58:54.009Z,16.26
2022-09-14T05:01:24.251Z,16.30
2022-09-14T05:03:51.767Z,16.36
2022-09-14T05:06:23.796Z,16.36
2022-09-14T05:08:51.548Z,16.32
2022-09-14T05:11:21.540Z,16.36
2022-09-14T05:13:50.172Z,16.36
2022-09-14T05:16:19.771Z,16.35
2022-09-14T05:18:46.732Z,16.31
2022-09-14T05:21:16.172Z,16.31
2022-09-14T05:23:43.087Z,16.30
2022-09-14T05:26:09.931Z,16.23
2022-09-14T05:28:37.624Z,16.25
2022-09-14T05:31:11.834Z,16.22
2022-09-14T05:33:38.508Z,16.21
2022-09-14T05:36:07.347Z,16.11
2022-09-14T05:38:36.013Z,16.12
2022-09-14T05:41:02.694Z,16.05
2022-09-14T05:43:30.522Z,16.10
2022-09-14T05:46:02.469Z,16.05
2022-09-14T05:48:33.312Z,16.04
2022-09-14T05:51:14.048Z,15.92
2022-09-14T05:53:40.525Z,15.97
2022-09-14T05:56:08.292Z,15.96
2022-09-14T05:58:35.581Z,15.93
2022-09-14T06:01:33.099Z,15.97
2022-09-14T06:04:02.336Z,15.86
2022-09-14T06:06:30.343Z,15.89
2022-09-14T06:08:57.336Z,15.83
2022-09-14T06:11:36.380Z,15.92
2022-09-14T06:14:03.095Z,15.93
2022-09-14T06:16:29.784Z,15.91
2022-09-14T06:18:58.012Z,15.85
2022-09-14T06:21:28.910Z,15.83
2022-09-14T06:23:56.041Z,15.85
2022-09-14T06:26:22.467Z,15.87
2022-09-14T06:28:49.471Z,15.91
2022-09-14T06:31:17.816Z,15.90
2022-09-14T06:33:45.713Z,15.83
2022-09-14T06:36:15.029Z,15.85
2022-09-14T06:38:42.603Z,15.70
2022-09-14T06:41:12.153Z,15.76
2022-09-14T06:43:41.024Z,15.70
2022-09-14T06:46:19.497Z,15.78
2022-09-14T06:49:02.208Z,15.80
2022-09-14T06:51:30.605Z,15.78
2022-09-14T06:54:01.484Z,15.78
2022-09-14T06:56:31.092Z,15.78
2022-09-14T06:58:58.615Z,15.79
2022-09-14T07:01:26.796Z,15.77
2022-09-14T07:03:53.769Z,15.77
2022-09-14T07:06:23.184Z,15.75
2022-09-14T07:08:50.939Z,15.74
2022-09-14T07:11:20.104Z,15.76
2022-09-14T07:13:46.959Z,15.70
2022-09-14T07:16:14.572Z,15.71
2022-09-14T07:18:41.725Z,15.70
2022-09-14T07:21:20.576Z,15.65
2022-09-14T07:23:48.226Z,15.66
2022-09-14T07:26:26.171Z,15.67
2022-09-14T07:29:02.011Z,15.64
2022-09-14T07:31:33.823Z,15.63
2022-09-14T07:34:03.441Z,15.67
2022-09-14T07:36:34.803Z,15.69
2022-09-14T07:39:04.235Z,15.71
2022-09-14T07:41:32.961Z,15.72
2022-09-14T07:44:01.211Z,15.72
2022-09-14T07:46:30.132Z,15.68
2022-09-14T07:48:59.313Z,15.67
2022-09-14T07:51:26.543Z,15.69
2022-09-14T07:53:53.101Z,15.72
2022-09-14T07:56:20.466Z,15.60
2022-09-14T07:58:49.542Z,15.58
2022-09-14T08:01:19.252Z,15.60
2022-09-14T08:03:48.238Z,15.58
2022-09-14T08:06:28.993Z,15.50
2022-09-14T08:08:56.224Z,15.53
2022-09-14T08:11:31.280Z,15.52
2022-09-14T08:14:11.994Z,15.55
2022-09-14T08:16:40.430Z,15.54
2022-09-14T08:19:12.509Z,15.57
2022-09-14T08:21:42.773Z,15.52
2022-09-14T08:24:13.459Z,15.58
2022-09-14T08:26:42.724Z,15.53
2022-09-14T08:29:09.287Z,15.60
2022-09-14T08:31:38.694Z,15.65
2022-09-14T08:34:06.379Z,15.59
2022-09-14T08:36:35.333Z,15.63
2022-09-14T08:39:02.454Z,15.61
2022-09-14T08:41:41.811Z,15.51
2022-09-14T08:44:11.316Z,15.54
2022-09-14T08:46:49.645Z,15.53
2022-09-14T08:49:47.416Z,15.60
2022-09-14T08:52:32.783Z,15.57
2022-09-14T08:55:01.111Z,15.54
2022-09-14T08:57:34.056Z,15.53
2022-09-14T09:00:09.555Z,15.61
2022-09-14T09:03:13.078Z,15.60
2022-09-14T09:05:42.403Z,15.54
2022-09-14T09:08:26.982Z,15.48
2022-09-14T09:10:54.994Z,15.52
2022-09-14T09:13:26.573Z,15.55
2022-09-14T09:15:58.074Z,15.55
2022-09-14T09:18:48.020Z,15.60
2022-09-14T09:21:19.098Z,15.62
2022-09-14T09:23:46.024Z,15.61
2022-09-14T09:26:25.622Z,15.65
2022-09-14T09:28:54.913Z,15.59
2022-09-14T09:31:39.018Z,15.60
2022-09-14T09:34:06.419Z,15.59
2022-09-14T09:36:39.232Z,15.59
2022-09-14T09:39:06.447Z,15.63
2022-09-14T09:42:15.839Z,15.47
2022-09-14T09:45:03.405Z,15.51
2022-09-14T09:47:37.555Z,15.55
2022-09-14T09:50:19.125Z,15.61
2022-09-14T09:52:59.115Z,15.53
2022-09-14T09:55:38.288Z,15.59
2022-09-14T09:58:40.188Z,15.63
2022-09-14T10:01:17.866Z,15.64
2022-09-14T10:03:51.368Z,15.64
2022-09-14T10:06:18.138Z,15.59
2022-09-14T10:08:46.535Z,15.58
2022-09-14T10:11:39.371Z,15.52
2022-09-14T10:14:19.947Z,15.58
2022-09-14T10:16:47.465Z,15.55
2022-09-14T10:19:25.888Z,15.48
2022-09-14T10:22:17.209Z,15.49
2022-09-14T10:25:13.237Z,15.60
2022-09-14T10:27:48.474Z,15.63
2022-09-14T10:30:20.393Z,15.62
2022-09-14T10:33:00.314Z,15.64
2022-09-14T10:35:45.810Z,15.69
2022-09-14T10:38:24.757Z,15.76
2022-09-14T10:41:11.293Z,15.75
2022-09-14T10:43:54.038Z,15.76
2022-09-14T10:46:25.507Z,15.76
2022-09-14T10:49:11.191Z,15.72
2022-09-14T10:51:57.825Z,15.72
2022-09-14T10:54:49.755Z,15.71
2022-09-14T10:57:45.755Z,15.71
2022-09-14T11:00:21.908Z,15.77
2022-09-14T11:03:02.707Z,15.82
2022-09-14T11:05:58.672Z,15.76
2022-09-14T11:08:51.422Z,15.66
2022-09-14T11:11:27.458Z,15.55
2022-09-14T11:13:59.242Z,15.50
2022-09-14T11:16:38.198Z,15.54
2022-09-14T11:19:47.107Z,15.55
2022-09-14T11:22:38.827Z,15.51
2022-09-14T11:25:21.923Z,15.61
2022-09-14T11:27:55.085Z,15.71
2022-09-14T11:30:25.377Z,15.73
2022-09-14T11:33:04.811Z,15.74
2022-09-14T11:35:37.635Z,15.69
2022-09-14T11:38:14.619Z,15.67
2022-09-14T11:40:49.546Z,15.62
2022-09-14T11:43:39.071Z,15.69
2022-09-14T11:46:13.979Z,15.65
2022-09-14T11:49:03.431Z,15.74
2022-09-14T11:51:36.504Z,15.77
2022-09-14T11:54:03.209Z,15.77
2022-09-14T11:56:33.908Z,15.82
2022-09-14T11:59:05.443Z,15.81
2022-09-14T12:01:37.559Z,15.82
2022-09-14T12:04:12.827Z,15.85
2022-09-14T12:06:39.269Z,15.88
2022-09-14T12:09:19.990Z,15.72
2022-09-14T12:11:49.198Z,15.63
2022-09-14T12:14:30.487Z,15.65
2022-09-14T12:17:37.869Z,15.72
2022-09-14T12:20:20.458Z,15.77
2022-09-14T12:22:50.318Z,15.71
2022-09-14T12:25:20.218Z,15.76
2022-09-14T12:27:48.979Z,15.74
2022-09-14T12:30:41.069Z,15.74
2022-09-14T12:33:32.801Z,15.63
2022-09-14T12:36:37.579Z,15.67
2022-09-14T12:39:24.922Z,15.70
2022-09-14T12:41:51.336Z,15.67
2022-09-14T12:44:29.856Z,15.69
2022-09-14T12:46:56.401Z,15.70
2022-09-14T12:49:28.982Z,15.62
2022-09-14T12:51:57.740Z,15.51
2022-09-14T12:55:02.172Z,15.45
2022-09-14T12:57:42.921Z,15.26
2022-09-14T13:00:19.744Z,15.26
2022-09-14T13:03:20.390Z,15.26
2022-09-14T13:05:46.970Z,15.35
2022-09-14T13:08:20.620Z,15.35
2022-09-14T13:10:50.782Z,15.42
2022-09-14T13:13:32.186Z,15.59
2022-09-14T13:16:04.698Z,15.66
2022-09-14T13:18:36.664Z,15.72
2022-09-14T13:21:25.133Z,15.59
2022-09-14T13:23:51.736Z,15.49
2022-09-14T13:26:30.045Z,15.38
2022-09-14T13:28:59.421Z,15.47
2022-09-14T13:31:35.539Z,15.57
2022-09-14T13:34:03.078Z,15.68
2022-09-14T13:36:33.840Z,15.71
2022-09-14T13:39:03.637Z,15.69
2022-09-14T13:41:32.055Z,15.60
2022-09-14T13:43:59.727Z,15.60
2022-09-14T13:46:27.462Z,15.65
2022-09-14T13:48:54.993Z,15.58
2022-09-14T13:51:27.978Z,15.55
2022-09-14T13:54:15.723Z,15.55
2022-09-14T13:56:42.426Z,15.51
2022-09-14T13:59:09.112Z,15.47
2022-09-14T14:01:39.746Z,15.46
2022-09-14T14:04:19.137Z,15.50
2022-09-14T14:06:46.093Z,15.57
2022-09-14T14:09:12.984Z,15.61
2022-09-14T14:11:53.700Z,15.62
2022-09-14T14:14:28.829Z,15.69
2022-09-14T14:17:20.278Z,15.75
2022-09-14T14:19:47.960Z,15.80
2022-09-14T14:22:14.312Z,15.69
2022-09-14T14:25:12.369Z,15.65
2022-09-14T14:27:43.890Z,15.65
2022-09-14T14:30:19.664Z,15.64
2022-09-14T14:32:54.691Z,15.66
2022-09-14T14:35:24.003Z,15.59
2022-09-14T14:37:50.980Z,15.61
2022-09-14T14:40:19.219Z,15.69
2022-09-14T14:42:47.249Z,15.73
2022-09-14T14:45:18.884Z,15.76
2022-09-14T14:47:52.751Z,15.78
2022-09-14T14:50:28.020Z,15.82
2022-09-14T14:52:54.650Z,15.78
2022-09-14T14:55:22.093Z,15.76
2022-09-14T14:57:50.039Z,15.76
2022-09-14T15:00:22.808Z,15.79
2022-09-14T15:02:50.471Z,15.77
2022-09-14T15:05:17.559Z,15.81
2022-09-14T15:07:44.408Z,15.81
2022-09-14T15:10:16.248Z,15.77
2022-09-14T15:12:43.368Z,15.82
2022-09-14T15:15:18.637Z,15.82
2022-09-14T15:17:45.181Z,15.77
2022-09-14T15:20:13.080Z,15.79
2022-09-14T15:22:42.296Z,15.83
2022-09-14T15:25:10.116Z,15.85
2022-09-14T15:27:37.105Z,15.86
2022-09-14T15:30:05.074Z,15.87
2022-09-14T15:32:31.537Z,15.91
2022-09-14T15:34:57.972Z,15.87
2022-09-14T15:37:24.555Z,15.87
2022-09-14T15:39:51.124Z,15.76
2022-09-14T15:42:18.482Z,15.74
2022-09-14T15:44:45.074Z,15.76
2022-09-14T15:47:14.606Z,15.79
2022-09-14T15:49:42.410Z,15.83
2022-09-14T15:52:10.741Z,15.87
2022-09-14T15:54:38.691Z,15.88
2022-09-14T15:57:11.237Z,15.85
2022-09-14T15:59:37.839Z,15.88
2022-09-14T16:02:04.647Z,15.91
2022-09-14T16:04:36.675Z,15.93
2022-09-14T16:07:05.350Z,15.93
2022-09-14T16:09:31.781Z,15.92
2022-09-14T16:12:01.563Z,15.85
2022-09-14T16:14:28.437Z,15.89
2022-09-14T16:16:54.950Z,15.90
2022-09-14T16:19:21.645Z,15.94
2022-09-14T16:21:51.687Z,15.89
2022-09-14T16:24:21.715Z,15.74
2022-09-14T16:26:48.536Z,15.79
2022-09-14T16:29:17.401Z,15.65
2022-09-14T16:31:45.929Z,15.64
2022-09-14T16:34:23.887Z,15.64
2022-09-14T16:36:50.902Z,15.68
2022-09-14T16:39:20.171Z,15.64
2022-09-14T16:41:46.632Z,15.74
2022-09-14T16:44:16.740Z,15.80
2022-09-14T16:46:43.881Z,15.72
2022-09-14T16:49:10.402Z,15.63
2022-09-14T16:51:37.705Z,15.55
2022-09-14T16:54:04.769Z,15.62
2022-09-14T16:56:33.685Z,15.53
2022-09-14T16:59:01.381Z,15.48
2022-09-14T17:01:33.345Z,15.48
2022-09-14T17:04:08.141Z,15.45
2022-09-14T17:06:36.270Z,15.46
2022-09-14T17:09:12.516Z,15.44
2022-09-14T17:11:40.470Z,15.47
2022-09-14T17:14:08.670Z,15.37
2022-09-14T17:16:35.603Z,15.39
2022-09-14T17:19:04.607Z,15.37
2022-09-14T17:21:37.012Z,15.38
2022-09-14T17:24:04.578Z,15.45
2022-09-14T17:26:31.504Z,15.26
2022-09-14T17:28:59.510Z,15.28
2022-09-14T17:31:29.246Z,15.23
2022-09-14T17:33:57.970Z,15.21
2022-09-14T17:36:25.289Z,15.09
2022-09-14T17:38:52.327Z,15.11
2022-09-14T17:41:21.855Z,15.04
2022-09-14T17:43:53.711Z,15.12
2022-09-14T17:46:22.675Z,15.09
2022-09-14T17:48:50.553Z,15.07
2022-09-14T17:51:25.782Z,14.99
2022-09-14T17:53:54.588Z,14.93
2022-09-14T17:56:23.378Z,15.02
2022-09-14T17:58:58.762Z,14.87
2022-09-14T18:01:25.327Z,14.98
2022-09-14T18:03:54.515Z,15.07
2022-09-14T18:06:23.797Z,15.07
2022-09-14T18:09:00.220Z,14.94
2022-09-14T18:11:28.119Z,14.87
2022-09-14T18:13:55.387Z,14.93
2022-09-14T18:16:23.178Z,14.88
2022-09-14T18:18:49.731Z,14.83
2022-09-14T18:21:18.478Z,14.80
2022-09-14T18:23:49.585Z,14.86
2022-09-14T18:26:16.234Z,14.95
2022-09-14T18:28:44.396Z,14.92
2022-09-14T18:31:13.825Z,14.78
2022-09-14T18:33:40.705Z,14.70
2022-09-14T18:36:07.564Z,14.73
2022-09-14T18:38:33.984Z,14.80
2022-09-14T18:41:07.401Z,14.82
2022-09-14T18:43:34.361Z,14.81
2022-09-14T18:46:05.204Z,14.74
2022-09-14T18:48:34.232Z,14.84
2022-09-14T18:51:06.975Z,14.92
2022-09-14T18:53:33.739Z,14.90
2022-09-14T18:56:02.471Z,14.92
2022-09-14T18:58:32.318Z,14.79
2022-09-14T19:00:58.801Z,14.74
2022-09-14T19:03:28.424Z,14.75
2022-09-14T19:05:58.754Z,14.85
2022-09-14T19:08:25.677Z,14.75
2022-09-14T19:10:52.377Z,14.80
2022-09-14T19:13:18.865Z,14.75
2022-09-14T19:15:45.460Z,14.79
2022-09-14T19:18:11.968Z,14.85
2022-09-14T19:21:05.306Z,14.85
2022-09-14T19:23:28.186Z,14.81
2022-09-14T19:25:54.594Z,14.73
2022-09-14T19:28:21.066Z,14.76
2022-09-14T19:30:48.788Z,14.78
2022-09-14T19:33:15.333Z,14.67
2022-09-14T19:35:41.813Z,14.77
2022-09-14T19:38:08.231Z,14.80
2022-09-14T19:40:34.857Z,14.59
2022-09-14T19:43:01.569Z,14.56
2022-09-14T19:45:28.099Z,14.64
2022-09-14T19:47:54.589Z,14.55
2022-09-14T19:50:21.146Z,14.57
2022-09-14T19:52:48.180Z,14.56
2022-09-14T19:55:14.772Z,14.49
2022-09-14T19:57:41.320Z,14.41
2022-09-14T20:00:13.214Z,14.43
2022-09-14T20:02:41.872Z,14.40
2022-09-14T20:05:10.556Z,14.46
2022-09-14T20:07:37.245Z,14.46
2022-09-14T20:10:03.943Z,14.45
2022-09-14T20:12:30.352Z,14.38
2022-09-14T20:14:56.920Z,14.43
2022-09-14T20:17:23.342Z,14.47
2022-09-14T20:19:49.822Z,14.51
2022-09-14T20:22:16.937Z,14.45
2022-09-14T20:24:43.589Z,14.34
2022-09-14T20:27:10.065Z,14.37
2022-09-14T20:29:36.733Z,14.30
2022-09-14T20:32:04.762Z,14.37
2022-09-14T20:34:31.715Z,14.32
2022-09-14T20:37:00.159Z,14.32
2022-09-14T20:39:27.906Z,14.33
2022-09-14T20:41:54.348Z,14.36
2022-09-14T20:44:22.983Z,14.33
2022-09-14T20:46:50.559Z,14.30
2022-09-14T20:49:19.451Z,14.33
2022-09-14T20:51:46.080Z,14.25
2022-09-14T20:54:16.396Z,14.21
2022-09-14T20:56:43.984Z,14.23
2022-09-14T20:59:13.408Z,14.17
2022-09-14T21:01:41.646Z,14.12
2022-09-14T21:04:13.263Z,14.07
2022-09-14T21:06:43.779Z,14.11
2022-09-14T21:09:11.218Z,14.14
2022-09-14T21:11:38.478Z,14.15
2022-09-14T21:14:05.433Z,14.16
2022-09-14T21:16:34.800Z,14.18
2022-09-14T21:19:04.009Z,14.17
2022-09-14T21:21:30.636Z,14.19
2022-09-14T21:23:58.418Z,14.02
2022-09-14T21:26:26.129Z,13.85
2022-09-14T21:28:57.662Z,13.82
2022-09-14T21:31:25.850Z,13.85
2022-09-14T21:33:54.555Z,13.85
2022-09-14T21:36:23.588Z,13.87
2022-09-14T21:38:50.463Z,13.88
2022-09-14T21:41:18.857Z,13.89
2022-09-14T21:43:45.822Z,13.93
2022-09-14T21:46:12.320Z,13.99
2022-09-14T21:48:38.956Z,13.97
2022-09-14T21:51:15.302Z,13.93
2022-09-14T21:53:45.287Z,13.86
2022-09-14T21:56:12.183Z,13.79
2022-09-14T21:58:38.602Z,13.84
2022-09-14T22:01:05.231Z,13.81
2022-09-14T22:03:31.833Z,13.77
2022-09-14T22:06:04.091Z,13.74
2022-09-14T22:08:32.551Z,13.64
2022-09-14T22:11:03.589Z,13.71
2022-09-14T22:13:30.105Z,13.68
2022-09-14T22:15:56.634Z,13.71
2022-09-14T22:18:23.126Z,13.70
2022-09-14T22:20:57.336Z,13.65
2022-09-14T22:23:24.294Z,13.65
2022-09-14T22:25:51.167Z,13.62
2022-09-14T22:28:17.661Z,13.66
2022-09-14T22:30:51.968Z,13.60
2022-09-14T22:33:23.923Z,13.66
2022-09-14T22:35:55.536Z,13.59
2022-09-14T22:38:23.873Z,13.55
2022-09-14T22:40:58.802Z,13.56
2022-09-14T22:43:26.435Z,13.52
2022-09-14T22:45:53.118Z,13.54
2022-09-14T22:48:20.297Z,13.54
2022-09-14T22:50:48.419Z,13.50
2022-09-14T22:53:15.344Z,13.54
2022-09-14T22:55:43.333Z,13.58
2022-09-14T22:58:11.254Z,13.60
2022-09-14T23:12:01.807Z,13.77
2022-09-14T23:14:28.223Z,13.75
2022-09-14T23:16:54.803Z,13.79
2022-09-14T23:19:21.305Z,13.70
2022-09-14T23:21:47.783Z,13.72
2022-09-14T23:24:14.504Z,13.72
2022-09-14T23:26:41.130Z,13.69
2022-09-14T23:29:12.298Z,13.70
2022-09-14T23:31:38.730Z,13.76
2022-09-14T23:34:05.861Z,13.73
2022-09-14T23:36:32.941Z,13.73
